Flight Track Log - Related Links

Times and Time Zones

All times are in EDT time to prevent confusion due to time zone crossing. See the N885WT flight status page for this flight to view local times or setup timezone preferences in your user account.

Time Position Orientation Groundspeed Altitude Reporting Facility
EDT Latitude Longitude Course Direction KTS MPH feet Rate Location/Type
Tue 08:02:51 AM 61.2333 -150.2167 283° West 260 299 5,800  Level Anchorage Center
Tue 08:03:52 AM 61.2333 -150.3833 270° West 270 311 9,400 2,826 Climbing Anchorage Center
Tue 08:04:52 AM 61.2333 -150.5500 270° West 300 345 11,500 2,050 Climbing Anchorage Center
Tue 08:05:52 AM 61.2500 -150.7333 281° West 340 391 13,500 2,281 Climbing Anchorage Center
Tue 08:06:53 AM 61.2500 -150.9333 270° West 360 414 16,100 2,380 Climbing Anchorage Center
Tue 08:07:00 AM 61.2667 -151.8213 270° West  Level FlightAware Approximate
Tue 08:07:53 AM 61.2500 -151.1333 270° West 360 414 18,300  Level Anchorage Center
Tue 08:08:00 AM 61.2761 -152.0842 283° West  Level FlightAware Approximate
Tue 08:08:53 AM 61.2667 -151.3500 279° West 380 437 20,700  Level Anchorage Center
Tue 08:09:54 AM 61.2667 -151.5667 270° West 380 437 22,700 2,033 Climbing Anchorage Center
Tue 08:10:54 AM 61.2667 -151.7833 270° West 390 449 24,800 2,000 Climbing Anchorage Center
Tue 08:11:54 AM 61.2833 -152.0500 278° West 390 449 26,700 1,686 Climbing Anchorage Center
Tue 08:12:55 AM 61.2833 -152.2833 270° West 400 460 28,200 1,438 Climbing Anchorage Center
Tue 08:13:55 AM 61.2833 -152.5333 270° West 410 472 29,600 1,550 Climbing Anchorage Center
Tue 08:14:55 AM 61.2833 -152.7667 270° West 420 483 31,300 1,983 Climbing Anchorage Center
Tue 08:15:56 AM 61.2833 -153.0167 270° West 410 472 33,600 1,785 Climbing Anchorage Center
Tue 08:16:56 AM 61.2833 -153.2500 270° West 410 472 34,900 1,500 Climbing Anchorage Center
Tue 08:17:56 AM 61.2833 -153.4667 270° West 410 472 36,600 1,785 Climbing Anchorage Center
Tue 08:18:57 AM 61.2833 -153.7000 270° West 400 460 38,500 1,289 Climbing Anchorage Center
Tue 08:19:57 AM 61.2667 -153.9167 261° West 380 437 39,200 595 Climbing Anchorage Center
Tue 08:20:58 AM 61.2667 -154.1500 270° West 400 460 39,700 397 Climbing Anchorage Center
Tue 08:21:58 AM 61.2667 -154.4000 270° West 410 472 40,000 150 Climbing Anchorage Center
Tue 08:22:58 AM 61.2667 -154.6333 270° West 430 495 40,000  Level Anchorage Center
Tue 08:23:59 AM 61.2667 -154.8833 270° West 420 483 40,000  Level Anchorage Center
Tue 08:24:59 AM 61.2667 -155.1333 270° West 420 483 40,000  Level Anchorage Center
Tue 08:25:59 AM 61.2500 -155.3667 262° West 430 495 40,000  Level Anchorage Center
Tue 08:27:00 AM 61.2500 -155.6667 270° West 430 495 40,000  Level Anchorage Center
Tue 08:28:00 AM 61.2500 -155.9167 270° West 420 483 40,000  Level Anchorage Center
Tue 08:29:00 AM 61.2500 -156.1500 270° West 430 495 40,000  Level Anchorage Center
Tue 08:30:01 AM 61.2500 -156.4000 270° West 420 483 40,000  Level Anchorage Center
Tue 08:31:01 AM 61.2500 -156.6500 270° West 420 483 40,000  Level Anchorage Center
Tue 08:32:01 AM 61.2333 -156.8833 262° West 410 472 40,000  Level Anchorage Center
Tue 08:33:02 AM 61.2500 -157.1333 278° West 410 472 40,000  Level Anchorage Center
Tue 08:34:02 AM 61.2500 -157.3833 270° West 420 483 40,000  Level Anchorage Center
Tue 08:35:03 AM 61.2500 -157.6167 270° West 410 472 40,000  Level Anchorage Center
Tue 08:36:03 AM 61.2500 -157.8667 270° West 420 483 40,000  Level Anchorage Center
Tue 08:37:03 AM 61.2333 -158.1000 262° West 420 483 40,000  Level Anchorage Center
Tue 08:38:04 AM 61.2333 -158.3500 270° West 420 483 40,000  Level Anchorage Center
Tue 08:39:04 AM 61.2333 -158.6000 270° West 420 483 40,000  Level Anchorage Center
Tue 08:40:04 AM 61.2333 -158.8333 270° West 420 483 40,000  Level Anchorage Center
Tue 08:41:05 AM 61.2333 -159.0833 270° West 430 495 40,000  Level Anchorage Center
Tue 08:42:05 AM 61.2333 -159.3333 270° West 420 483 40,000  Level Anchorage Center
Tue 08:43:05 AM 61.2167 -159.5833 262° West 420 483 40,000  Level Anchorage Center
Tue 08:44:06 AM 61.2167 -159.8167 270° West 420 483 40,000  Level Anchorage Center
Tue 08:45:06 AM 61.2167 -160.0667 270° West 430 495 40,000  Level Anchorage Center
Tue 08:46:06 AM 61.2000 -160.3333 263° West 430 495 40,000  Level Anchorage Center
Tue 08:47:07 AM 61.2000 -160.5833 270° West 430 495 40,000  Level Anchorage Center
Tue 08:48:07 AM 61.1833 -160.8500 263° West 410 472 40,000  Level Anchorage Center
Tue 08:49:08 AM 61.1833 -161.1000 270° West 430 495 40,000  Level Anchorage Center
Tue 08:50:08 AM 61.1667 -161.3500 262° West 430 495 40,000  Level Anchorage Center
Tue 08:51:08 AM 61.1667 -161.6000 270° West 430 495 40,000  Level Anchorage Center
Tue 08:52:08 AM 61.1500 -161.8500 262° West 430 495 40,000  Level Anchorage Center
Tue 08:53:08 AM 61.1500 -162.1000 270° West 430 495 40,000  Level Anchorage Center
Tue 08:54:09 AM 61.1333 -162.3500 262° West 440 506 40,000  Level Anchorage Center
Tue 08:55:09 AM 61.1333 -162.6167 270° West 440 506 40,000  Level Anchorage Center
Tue 08:56:10 AM 61.1167 -162.8667 262° West 440 506 40,000  Level Anchorage Center
Tue 08:57:10 AM 61.1000 -163.1167 262° West 430 495 40,000  Level Anchorage Center
Tue 08:58:10 AM 61.0667 -163.3500 254° West 430 495 40,000  Level Anchorage Center
Tue 08:59:11 AM 61.0167 -163.6000 248° West 430 495 40,000  Level Anchorage Center
Tue 09:00:11 AM 60.9833 -163.8333 254° West 430 495 40,000  Level Anchorage Center
Tue 09:01:11 AM 60.9500 -164.0833 255° West 430 495 40,000  Level Anchorage Center
Tue 09:02:12 AM 60.9167 -164.3167 254° West 430 495 40,000  Level Anchorage Center
Tue 09:03:12 AM 60.8833 -164.5667 255° West 440 506 40,000  Level Anchorage Center
Tue 09:04:12 AM 60.8500 -164.8000 254° West 430 495 40,000  Level Anchorage Center
Tue 09:05:14 AM 60.8000 -165.0333 246° West 430 495 40,000  Level Anchorage Center
Tue 09:06:22 AM 60.7667 -165.3333 257° West 440 506 40,000  Level Anchorage Center
Tue 09:07:22 AM 60.7167 -165.5667 246° West 430 495 40,000  Level Anchorage Center
Tue 09:08:22 AM 60.6833 -165.8000 254° West 440 506 40,000  Level Anchorage Center
Tue 09:09:22 AM 60.6500 -166.0333 254° West 440 506 40,000  Level Anchorage Center
Tue 09:10:22 AM 60.6000 -166.2667 247° West 430 495 40,000  Level Anchorage Center
Tue 09:11:23 AM 60.5667 -166.5167 255° West 430 495 40,000  Level Anchorage Center
Tue 09:12:23 AM 60.5333 -166.7500 254° West 440 506 40,000  Level Anchorage Center
Tue 09:13:22 AM 60.4833 -166.9833 247° West 440 506 40,000  Level Anchorage Center
Tue 09:14:23 AM 60.4500 -167.2333 255° West 440 506 40,000  Level Anchorage Center
Tue 09:15:23 AM 60.4000 -167.4667 247° West 450 518 40,000  Level Anchorage Center
Tue 09:16:22 AM 60.3667 -167.7000 254° West 440 506 40,000  Level Anchorage Center
Tue 09:17:23 AM 60.3333 -167.8833 250° West 450 518 40,000  Level Anchorage Center
Tue 09:18:23 AM 60.2833 -168.1167 247° West 440 506 40,000  Level Anchorage Center
Tue 09:19:23 AM 60.2500 -168.3500 254° West 430 495 40,000  Level Anchorage Center
Tue 09:20:23 AM 60.2000 -168.5833 247° West 430 495 40,000  Level Anchorage Center
Tue 09:21:23 AM 60.1500 -168.8167 247° West 440 506 40,000  Level Anchorage Center
Tue 09:22:23 AM 60.1167 -169.0500 254° West 440 506 40,000  Level Anchorage Center
Tue 09:23:23 AM 60.0667 -169.2833 247° West 440 506 40,000  Level Anchorage Center
Tue 09:24:23 AM 60.0167 -169.5167 247° West 440 506 40,000  Level Anchorage Center
Tue 09:25:23 AM 59.9667 -169.7333 245° Southwest 440 506 40,000  Level Anchorage Center
Tue 09:26:23 AM 59.9333 -169.9833 255° West 450 518 40,000  Level Anchorage Center
Tue 09:27:23 AM 59.8833 -170.2167 247° West 450 518 40,000  Level Anchorage Center
Tue 09:28:23 AM 59.8333 -170.4500 247° West 450 518 40,000  Level Anchorage Center
Tue 09:29:23 AM 59.7833 -170.6833 247° West 450 518 40,000  Level Anchorage Center
Tue 09:30:23 AM 59.7333 -170.9167 247° West 450 518 40,000  Level Anchorage Center
Tue 09:31:23 AM 59.7000 -171.1333 253° West 440 506 40,000  Level Anchorage Center
Tue 09:32:24 AM 59.6500 -171.3667 247° West 450 518 40,000  Level Anchorage Center
Tue 09:33:24 AM 59.6000 -171.6000 247° West 450 518 40,000  Level Anchorage Center
Tue 09:34:24 AM 59.5500 -171.8333 247° West 450 518 40,000  Level Anchorage Center
Tue 09:35:24 AM 59.5000 -172.0500 246° West 450 518 40,000  Level Anchorage Center
Tue 09:36:24 AM 59.4500 -172.2833 247° West 440 506 40,000  Level Anchorage Center
Tue 09:37:24 AM 59.4167 -172.5000 253° West 440 506 40,000  Level Anchorage Center
Tue 09:38:24 AM 59.3667 -172.7333 247° West 440 506 40,000  Level Anchorage Center
Tue 09:39:24 AM 59.3167 -172.9667 247° West 450 518 40,000  Level Anchorage Center
Tue 09:40:24 AM 59.2667 -173.1833 246° West 450 518 40,000  Level Anchorage Center
Tue 09:41:24 AM 59.2167 -173.4167 247° West 450 518 40,000  Level Anchorage Center
Tue 09:42:24 AM 59.1667 -173.6500 247° West 450 518 40,000  Level Anchorage Center
Tue 09:43:24 AM 59.1167 -173.8833 247° West 460 529 40,000  Level Anchorage Center
Tue 09:44:24 AM 59.0667 -174.1000 246° West 450 518 40,000  Level Anchorage Center
Tue 09:45:24 AM 59.0167 -174.3333 247° West 460 529 40,000  Level Anchorage Center
Tue 09:46:24 AM 58.9667 -174.5667 248° West 460 529 40,000  Level Anchorage Center
Tue 09:47:24 AM 58.9167 -174.8000 248° West 470 541 40,000  Level Anchorage Center
Tue 09:48:24 AM 58.8667 -175.0333 248° West 470 541 40,000  Level Anchorage Center
Tue 09:49:25 AM 58.8167 -175.2500 246° West 460 529 40,000  Level Anchorage Center
Tue 09:50:25 AM 58.7667 -175.4833 248° West 470 541 40,000  Level Anchorage Center
Tue 09:51:25 AM 58.7000 -175.7167 241° Southwest 460 529 40,000  Level Anchorage Center
Tue 09:52:25 AM 58.6500 -175.9333 246° West 460 529 40,000  Level Anchorage Center
Tue 09:53:25 AM 58.6000 -176.1667 248° West 470 541 40,000  Level Anchorage Center
Tue 09:54:25 AM 58.5500 -176.4000 248° West 460 529 40,000  Level Anchorage Center
Tue 09:55:25 AM 58.4833 -176.6167 240° Southwest 470 541 40,000  Level Anchorage Center
Tue 09:56:25 AM 58.4333 -176.8500 248° West 470 541 40,000  Level Anchorage Center
Tue 09:57:25 AM 58.3833 -177.0833 248° West 470 541 40,000  Level Anchorage Center
Tue 09:58:25 AM 58.3167 -177.3000 240° Southwest 460 529 40,000  Level Anchorage Center
Tue 09:59:25 AM 58.2667 -177.5167 246° West 470 541 40,000  Level Anchorage Center
Tue 10:00:35 AM 58.2000 -177.7833 245° Southwest 450 518 40,000  Level Anchorage Center
Tue 10:02:18 AM 58.1667 -177.9500 244° Southwest 471 542 40,000  Level Anchorage Center
Tue 10:08:00 AM 57.7646 -179.4635 243° Southwest 471 542 40,000  Level FlightAware Transoceanic
Tue 10:09:00 AM 57.7058 -179.6769 243° Southwest 471 542 40,000  Level FlightAware Transoceanic
Tue 10:10:00 AM 57.6465 -179.8897 242° Southwest 471 542 40,000  Level FlightAware Transoceanic
Tue 10:11:00 AM 57.5869 179.8983 242° Southwest 471 542 40,000  Level FlightAware Transoceanic
Tue 10:12:00 AM 57.5270 179.6869 242° Southwest 471 542 40,000  Level FlightAware Transoceanic
Tue 10:13:00 AM 57.4667 179.4763 242° Southwest 471 542 40,000  Level FlightAware Transoceanic
Tue 10:14:00 AM 57.4060 179.2663 242° Southwest 471 542 40,000  Level FlightAware Transoceanic
Tue 10:15:00 AM 57.3450 179.0571 242° Southwest 471 542 40,000  Level FlightAware Transoceanic
Tue 10:16:00 AM 57.2836 178.8485 241° Southwest 471 542 40,000  Level FlightAware Transoceanic
Tue 10:17:00 AM 57.2220 178.6406 241° Southwest 471 542 40,000  Level FlightAware Transoceanic
Tue 10:18:00 AM 57.1599 178.4335 241° Southwest 471 542 40,000  Level FlightAware Transoceanic
Tue 10:19:00 AM 57.0975 178.2270 241° Southwest 471 542 40,000  Level FlightAware Transoceanic
Tue 10:20:00 AM 57.0348 178.0212 241° Southwest 471 542 40,000  Level FlightAware Transoceanic
Tue 10:21:00 AM 56.9718 177.8161 240° Southwest 471 542 40,000  Level FlightAware Transoceanic
Tue 10:22:00 AM 56.9084 177.6117 240° Southwest 471 542 40,000  Level FlightAware Transoceanic
Tue 10:23:00 AM 56.8447 177.4080 240° Southwest 471 542 40,000  Level FlightAware Transoceanic
Tue 10:23:13 AM 56.8333 177.3500 240° Southwest 476 548 40,000  Level Anchorage Center
Tue 10:24:00 AM 56.7806 177.2050 240° Southwest 471 542 40,000  Level FlightAware Transoceanic
Tue 10:25:00 AM 56.7163 177.0027 240° Southwest 471 542 40,000  Level FlightAware Transoceanic
Tue 10:26:00 AM 56.6516 176.8011 240° Southwest 471 542 40,000  Level FlightAware Transoceanic
Tue 10:27:00 AM 56.5865 176.6001 239° Southwest 471 542 40,000  Level FlightAware Transoceanic
Tue 10:27:54 AM 56.5167 176.3833 239° Southwest 475 547 40,000  Level Anchorage Center
Tue 10:28:00 AM 56.5212 176.3999 239° Southwest 471 542 40,000  Level FlightAware Transoceanic
Tue 10:29:00 AM 56.4316 176.1118 239° Southwest 476 548 40,000  Level FlightAware Transoceanic
Tue 10:30:00 AM 56.3634 175.9080 239° Southwest 476 548 40,000  Level FlightAware Transoceanic
Tue 10:31:00 AM 56.2950 175.7049 239° Southwest 476 548 40,000  Level FlightAware Transoceanic
Tue 10:31:27 AM 56.2500 175.6500 238° Southwest 470 541 40,000  Level Anchorage Center
Tue 10:32:00 AM 56.2262 175.5025 238° Southwest 476 548 40,000  Level FlightAware Transoceanic
Tue 10:32:27 AM 56.2000 175.4500 246° West 480 552 40,000  Level Anchorage Center
Tue 10:33:00 AM 56.1570 175.3009 238° Southwest 476 548 40,000  Level FlightAware Transoceanic
Tue 10:33:27 AM 56.1167 175.2500 233° Southwest 470 541 40,000  Level Anchorage Center
Tue 10:34:00 AM 56.1006 175.1478 238° Southwest 475 547 40,000  Level FlightAware Transoceanic
Tue 10:34:27 AM 56.0667 175.0667 244° Southwest 480 552 40,000  Level Anchorage Center
Tue 10:35:00 AM 56.0301 174.9445 238° Southwest 475 547 40,000  Level FlightAware Transoceanic
Tue 10:35:27 AM 55.9833 174.8333 238° Southwest 480 552 40,000  Level Anchorage Center
Tue 10:36:00 AM 55.9592 174.7419 238° Southwest 475 547 40,000  Level FlightAware Transoceanic
Tue 10:36:27 AM 55.9167 174.6500 237° Southwest 480 552 40,000  Level Anchorage Center
Tue 10:37:27 AM 55.8500 174.4333 241° Southwest 480 552 40,000  Level Anchorage Center
Tue 10:38:27 AM 55.7667 174.2167 236° Southwest 480 552 40,000  Level Anchorage Center
Tue 10:39:28 AM 55.7000 174.0500 235° Southwest 480 552 40,000  Level Anchorage Center
Tue 10:40:27 AM 55.6333 173.8333 241° Southwest 490 564 40,000  Level Anchorage Center
Tue 10:41:27 AM 55.5667 173.6500 237° Southwest 490 564 40,000  Level Anchorage Center
Tue 10:42:27 AM 55.4833 173.4333 236° Southwest 490 564 40,000  Level Anchorage Center
Tue 10:44:28 AM 55.3333 173.0500 236° Southwest 480 552 40,000  Level Anchorage Center
Tue 10:45:28 AM 55.2500 172.8333 236° Southwest 490 564 40,000  Level Anchorage Center
Tue 10:46:28 AM 55.1833 172.6667 235° Southwest 480 552 40,000  Level Anchorage Center
Tue 10:47:28 AM 55.1167 172.4667 240° Southwest 480 552 40,000  Level Anchorage Center
Tue 10:48:28 AM 55.0500 172.2833 238° Southwest 490 564 40,000  Level Anchorage Center
Tue 10:49:28 AM 54.9667 172.0833 234° Southwest 480 552 40,000  Level Anchorage Center
Tue 10:50:28 AM 54.9000 171.9167 235° Southwest 490 564 40,000 50 Level Anchorage Center
Tue 10:51:28 AM 54.8333 171.7500 235° Southwest 490 564 40,100 450 Climbing Anchorage Center
Tue 10:52:28 AM 54.7500 171.5333 236° Southwest 480 552 40,900 900 Climbing Anchorage Center
Tue 10:53:28 AM 54.6500 171.3333 229° Southwest 490 564 41,900 843 Climbing Anchorage Center
Tue 10:54:29 AM 54.5667 171.1333 234° Southwest 460 529 42,600 550 Climbing Anchorage Center
Tue 10:55:28 AM 54.5167 170.9833 240° Southwest 470 541 43,000 200 Climbing Anchorage Center
Tue 10:56:29 AM 54.4167 170.7833 229° Southwest 470 541 43,000  Level Anchorage Center
Tue 10:57:28 AM 54.3500 170.6167 236° Southwest 480 552 43,000  Level Anchorage Center
Tue 10:58:29 AM 54.2667 170.4167 235° Southwest 500 575 43,000  Level Anchorage Center
Tue 10:59:29 AM 54.2000 170.2667 233° Southwest 470 541 43,000  Level Anchorage Center
Tue 11:00:29 AM 54.1167 170.0500 237° Southwest 480 552 43,000  Level Anchorage Center
Tue 11:01:29 AM 54.0167 169.8500 230° Southwest 480 552 43,000  Level Anchorage Center
Tue 11:02:29 AM 53.9500 169.7000 233° Southwest 480 552 43,000  Level Anchorage Center
Tue 11:03:29 AM 53.8667 169.5000 235° Southwest 490 564 43,000  Level Anchorage Center
Tue 11:04:29 AM 53.8000 169.3500 233° Southwest 480 552 43,000  Level Anchorage Center
Tue 11:05:29 AM 53.7167 169.1500 235° Southwest 500 575 43,000  Level Anchorage Center
Tue 11:06:29 AM 53.6500 168.9833 236° Southwest 480 552 43,000  Level Anchorage Center
Tue 11:07:29 AM 53.5833 168.7667 243° Southwest 470 541 43,000  Level Anchorage Center
Tue 11:08:29 AM 53.5333 168.6000 243° Southwest 490 564 43,000  Level Anchorage Center
Tue 11:09:29 AM 53.4500 168.3833 237° Southwest 490 564 43,000  Level Anchorage Center
Tue 11:10:29 AM 53.3833 168.1833 241° Southwest 470 541 43,000  Level Anchorage Center
Tue 11:11:29 AM 53.3333 168.0167 243° Southwest 470 541 43,000  Level Anchorage Center
Tue 11:12:29 AM 53.2500 167.8000 237° Southwest 480 552 43,000  Level Anchorage Center
Tue 11:13:29 AM 53.1833 167.6333 236° Southwest 480 552 43,000  Level Anchorage Center
Tue 11:16:00 AM 53.0866 167.3579 240° Southwest  Level FlightAware Approximate
Tue 11:21:26 AM 52.6667 166.2000 238° Southwest 473 544 43,000  Level Anchorage Center
Tue 11:23:00 AM 52.6319 166.1029 240° Southwest  Level FlightAware Approximate
Tue 11:24:00 AM 52.5659 165.9258 239° Southwest  Level FlightAware Approximate
Tue 11:25:00 AM 52.4989 165.7500 238° Southwest  Level FlightAware Approximate
Tue 11:26:00 AM 52.4313 165.5750 238° Southwest  Level FlightAware Approximate
Tue 11:27:00 AM 52.2606 165.1421 237° Southwest 473 544 43,000  Level FlightAware Transoceanic
Tue 11:28:00 AM 52.1920 164.9677 237° Southwest 473 544 43,000  Level FlightAware Transoceanic
Tue 11:29:00 AM 52.1232 164.7938 237° Southwest 473 544 43,000  Level FlightAware Transoceanic
Tue 11:30:00 AM 52.0541 164.6204 237° Southwest 473 544 43,000  Level FlightAware Transoceanic
Tue 11:31:00 AM 51.9847 164.4476 237° Southwest 473 544 43,000  Level FlightAware Transoceanic
Tue 11:32:00 AM 51.9151 164.2753 237° Southwest 473 544 43,000  Level FlightAware Transoceanic
Tue 11:33:00 AM 51.8453 164.1036 237° Southwest 473 544 43,000  Level FlightAware Transoceanic
Tue 11:34:00 AM 51.7752 163.9324 236° Southwest 473 544 43,000  Level FlightAware Transoceanic
Tue 11:35:00 AM 51.7048 163.7617 236° Southwest 473 544 43,000  Level FlightAware Transoceanic
Tue 11:35:31 AM 51.6500 163.6500 236° Southwest 472 543 43,000  Level Anchorage Center
Tue 11:36:00 AM 51.6343 163.5916 236° Southwest 473 544 43,000  Level FlightAware Transoceanic
Tue 11:37:00 AM 51.5634 163.4220 236° Southwest 473 544 43,000  Level FlightAware Transoceanic
Tue 11:38:00 AM 51.4923 163.2529 236° Southwest 473 544 43,000  Level FlightAware Transoceanic
Tue 11:39:00 AM 51.4210 163.0843 236° Southwest 473 544 43,000  Level FlightAware Transoceanic
Tue 11:40:00 AM 51.3494 162.9163 236° Southwest 473 544 43,000  Level FlightAware Transoceanic
Tue 11:41:00 AM 51.2181 162.6260 236° Southwest 472 543 43,000  Level FlightAware Transoceanic
Tue 11:42:00 AM 51.1452 162.4572 235° Southwest 472 543 43,000  Level FlightAware Transoceanic
Tue 11:43:00 AM 51.0721 162.2890 235° Southwest 472 543 43,000  Level FlightAware Transoceanic
Tue 11:44:00 AM 50.9988 162.1213 235° Southwest 472 543 43,000  Level FlightAware Transoceanic
Tue 11:45:00 AM 50.9252 161.9541 235° Southwest 472 543 43,000  Level FlightAware Transoceanic
Tue 11:46:00 AM 50.8514 161.7874 235° Southwest 472 543 43,000  Level FlightAware Transoceanic
Tue 11:47:00 AM 50.7774 161.6213 235° Southwest 472 543 43,000  Level FlightAware Transoceanic
Tue 11:47:55 AM 50.7667 161.5833 235° Southwest 460 529 43,000  Level Anchorage Center
Tue 11:48:00 AM 50.7031 161.4557 235° Southwest 472 543 43,000  Level FlightAware Transoceanic
Tue 11:49:00 AM 50.6286 161.2906 234° Southwest 472 543 43,000  Level FlightAware Transoceanic
Tue 11:50:00 AM 50.5538 161.1260 234° Southwest 472 543 43,000  Level FlightAware Transoceanic
Tue 11:51:00 AM 50.4789 160.9620 234° Southwest 472 543 43,000  Level FlightAware Transoceanic
Tue 11:52:00 AM 50.4037 160.7985 234° Southwest 472 543 43,000  Level FlightAware Transoceanic
Tue 11:53:00 AM 50.3282 160.6355 234° Southwest 472 543 43,000  Level FlightAware Transoceanic
Tue 11:54:00 AM 50.3219 160.6141 234° Southwest 460 529 43,000  Level FlightAware Transoceanic
Tue 11:55:00 AM 50.2470 160.4544 234° Southwest 460 529 43,000  Level FlightAware Transoceanic
Tue 11:55:25 AM 50.2000 160.3833 234° Southwest 449 517 43,000  Level Anchorage Center
Tue 11:56:00 AM 50.1719 160.2951 234° Southwest 460 529 43,000  Level FlightAware Transoceanic
Tue 11:57:00 AM 50.0966 160.1363 233° Southwest 460 529 43,000  Level FlightAware Transoceanic
Tue 11:58:00 AM 50.0210 159.9781 233° Southwest 460 529 43,000  Level FlightAware Transoceanic
Tue 11:59:00 AM 49.9452 159.8203 233° Southwest 460 529 43,000  Level FlightAware Transoceanic
Tue 12:00:00 PM 49.8693 159.6631 233° Southwest 460 529 43,000  Level FlightAware Transoceanic
Tue 12:01:00 PM 49.7863 159.4964 234° Southwest 449 517 43,000  Level FlightAware Transoceanic
Tue 12:02:00 PM 49.7167 159.3500 233° Southwest 449 517 43,000  Level FlightAware Transoceanic
Tue 12:03:00 PM 49.6412 159.1959 233° Southwest 449 517 43,000  Level FlightAware Transoceanic
Tue 12:04:00 PM 49.5655 159.0422 233° Southwest 449 517 43,000  Level FlightAware Transoceanic
Tue 12:05:00 PM 49.4896 158.8891 233° Southwest 449 517 43,000  Level FlightAware Transoceanic
Tue 12:06:00 PM 49.4135 158.7364 232° Southwest 449 517 43,000  Level FlightAware Transoceanic
Tue 12:07:00 PM 49.3372 158.5841 232° Southwest 449 517 43,000  Level FlightAware Transoceanic
Tue 12:08:00 PM 49.2607 158.4324 232° Southwest 449 517 43,000  Level FlightAware Transoceanic
Tue 12:09:00 PM 49.1839 158.2811 232° Southwest 449 517 43,000  Level FlightAware Transoceanic
Tue 12:10:00 PM 49.1070 158.1303 232° Southwest 449 517 43,000  Level FlightAware Transoceanic
Tue 12:11:00 PM 49.0299 157.9799 232° Southwest 449 517 43,000  Level FlightAware Transoceanic
Tue 12:12:00 PM 48.9527 157.8301 232° Southwest 449 517 43,000  Level FlightAware Transoceanic
Tue 12:13:00 PM 48.8752 157.6806 232° Southwest 449 517 43,000  Level FlightAware Transoceanic
Tue 12:14:00 PM 48.7975 157.5317 232° Southwest 449 517 43,000  Level FlightAware Transoceanic
Tue 12:15:00 PM 48.7196 157.3832 231° Southwest 449 517 43,000  Level FlightAware Transoceanic
Tue 12:16:00 PM 48.6416 157.2352 231° Southwest 449 517 43,000  Level FlightAware Transoceanic
Tue 12:17:00 PM 48.5633 157.0876 231° Southwest 449 517 43,000  Level FlightAware Transoceanic
Tue 12:18:00 PM 48.4849 156.9405 231° Southwest 449 517 43,000  Level FlightAware Transoceanic
Tue 12:19:00 PM 48.4063 156.7938 231° Southwest 449 517 43,000  Level FlightAware Transoceanic
Tue 12:20:00 PM 48.3274 156.6476 231° Southwest 449 517 43,000  Level FlightAware Transoceanic
Tue 12:21:00 PM 48.2485 156.5019 231° Southwest 449 517 43,000  Level FlightAware Transoceanic
Tue 12:22:00 PM 48.1693 156.3566 231° Southwest 449 517 43,000  Level FlightAware Transoceanic
Tue 12:23:00 PM 48.0899 156.2117 231° Southwest 449 517 43,000  Level FlightAware Transoceanic
Tue 12:24:00 PM 48.0104 156.0673 230° Southwest 449 517 43,000  Level FlightAware Transoceanic
Tue 12:25:00 PM 47.9307 155.9233 230° Southwest 449 517 43,000  Level FlightAware Transoceanic
Tue 12:26:00 PM 47.8508 155.7798 230° Southwest 449 517 43,000  Level FlightAware Transoceanic
Tue 12:27:00 PM 47.7707 155.6367 230° Southwest 449 517 43,000  Level FlightAware Transoceanic
Tue 12:28:00 PM 47.6904 155.4941 230° Southwest 449 517 43,000  Level FlightAware Transoceanic
Tue 12:29:00 PM 47.6100 155.3519 230° Southwest 449 517 43,000  Level FlightAware Transoceanic
Tue 12:30:00 PM 47.5294 155.2101 230° Southwest 449 517 43,000  Level FlightAware Transoceanic
Tue 12:31:00 PM 47.4486 155.0688 230° Southwest 449 517 43,000  Level FlightAware Transoceanic
Tue 12:32:00 PM 47.3676 154.9279 230° Southwest 449 517 43,000  Level FlightAware Transoceanic
Tue 12:33:00 PM 47.2865 154.7874 230° Southwest 449 517 43,000  Level FlightAware Transoceanic
Tue 12:34:00 PM 47.2052 154.6474 229° Southwest 449 517 43,000  Level FlightAware Transoceanic
Tue 12:35:00 PM 47.1238 154.5078 229° Southwest 449 517 43,000  Level FlightAware Transoceanic
Tue 12:36:00 PM 47.0421 154.3686 229° Southwest 449 517 43,000  Level FlightAware Transoceanic
Tue 12:37:00 PM 46.9603 154.2299 229° Southwest 449 517 43,000  Level FlightAware Transoceanic
Tue 12:38:00 PM 46.8783 154.0915 229° Southwest 449 517 43,000  Level FlightAware Transoceanic
Tue 12:39:00 PM 46.7962 153.9536 229° Southwest 449 517 43,000  Level FlightAware Transoceanic
Tue 12:40:00 PM 46.7139 153.8161 229° Southwest 449 517 43,000  Level FlightAware Transoceanic
Tue 12:41:00 PM 46.6314 153.6791 229° Southwest 449 517 43,000  Level FlightAware Transoceanic
Tue 12:42:00 PM 46.5488 153.5424 229° Southwest 449 517 43,000  Level FlightAware Transoceanic
Tue 12:43:00 PM 46.4660 153.4062 229° Southwest 449 517 43,000  Level FlightAware Transoceanic
Tue 12:44:00 PM 46.3831 153.2704 228° Southwest 449 517 43,000  Level FlightAware Transoceanic
Tue 12:45:00 PM 46.2999 153.1350 228° Southwest 449 517 43,000  Level FlightAware Transoceanic
Tue 12:46:00 PM 46.2159 152.9987 228° Southwest  Level FlightAware Approximate
Tue 12:47:00 PM 46.2150 152.9974 228° Southwest  Level FlightAware Approximate
Tue 12:48:00 PM 46.1303 152.8622 228° Southwest  Level FlightAware Approximate
Tue 12:49:00 PM 46.0454 152.7274 228° Southwest  Level FlightAware Approximate
Tue 12:50:00 PM 45.9603 152.5931 228° Southwest  Level FlightAware Approximate
Tue 12:51:00 PM 45.8751 152.4591 228° Southwest  Level FlightAware Approximate
Tue 12:52:00 PM 45.7897 152.3256 228° Southwest  Level FlightAware Approximate
Tue 12:53:00 PM 45.7041 152.1925 227° Southwest  Level FlightAware Approximate
Tue 12:54:00 PM 45.6184 152.0597 227° Southwest  Level FlightAware Approximate
Tue 12:55:00 PM 45.5326 151.9274 227° Southwest  Level FlightAware Approximate
Tue 12:56:00 PM 45.4466 151.7955 227° Southwest  Level FlightAware Approximate
Tue 12:57:00 PM 45.3604 151.6640 227° Southwest  Level FlightAware Approximate
Tue 12:58:00 PM 45.2741 151.5329 227° Southwest  Level FlightAware Approximate
Tue 12:59:00 PM 45.1876 151.4022 227° Southwest  Level FlightAware Approximate
Tue 01:00:00 PM 45.1010 151.2718 227° Southwest  Level FlightAware Approximate
Tue 01:01:00 PM 45.0143 151.1419 227° Southwest  Level FlightAware Approximate
Tue 01:02:00 PM 44.9274 151.0124 227° Southwest  Level FlightAware Approximate
Tue 01:03:00 PM 44.8403 150.8833 226° Southwest  Level FlightAware Approximate
Tue 01:04:00 PM 44.7532 150.7545 226° Southwest  Level FlightAware Approximate
Tue 01:05:00 PM 44.6658 150.6261 226° Southwest  Level FlightAware Approximate
Tue 01:06:00 PM 44.5783 150.4982 226° Southwest  Level FlightAware Approximate
Tue 01:07:00 PM 44.4907 150.3706 226° Southwest  Level FlightAware Approximate
Tue 01:08:00 PM 44.4030 150.2434 226° Southwest  Level FlightAware Approximate
Tue 01:09:00 PM 44.3151 150.1165 226° Southwest  Level FlightAware Approximate
Tue 01:10:00 PM 44.2270 149.9901 226° Southwest  Level FlightAware Approximate
Tue 01:11:00 PM 44.1388 149.8640 226° Southwest  Level FlightAware Approximate
Tue 01:12:00 PM 44.0505 149.7384 226° Southwest  Level FlightAware Approximate
Tue 01:13:00 PM 43.9621 149.6130 226° Southwest  Level FlightAware Approximate
Tue 01:14:00 PM 43.8735 149.4881 225° Southwest  Level FlightAware Approximate
Tue 01:15:00 PM 43.7847 149.3635 225° Southwest  Level FlightAware Approximate
Tue 01:16:00 PM 43.6959 149.2393 225° Southwest  Level FlightAware Approximate
Tue 01:17:00 PM 43.6069 149.1155 225° Southwest  Level FlightAware Approximate
Tue 01:18:00 PM 43.5177 148.9920 225° Southwest  Level FlightAware Approximate
Tue 01:19:00 PM 43.4285 148.8689 225° Southwest  Level FlightAware Approximate
Tue 01:20:00 PM 43.3391 148.7462 225° Southwest  Level FlightAware Approximate
Tue 01:21:00 PM 43.2496 148.6238 225° Southwest  Level FlightAware Approximate
Tue 01:22:00 PM 43.1599 148.5018 225° Southwest  Level FlightAware Approximate
Tue 01:23:00 PM 43.0701 148.3801 225° Southwest  Level FlightAware Approximate
Tue 01:24:00 PM 42.9802 148.2588 225° Southwest  Level FlightAware Approximate
Tue 01:25:00 PM 42.8902 148.1379 225° Southwest  Level FlightAware Approximate
Tue 01:26:00 PM 42.8000 148.0173 224° Southwest  Level FlightAware Approximate
Tue 01:27:00 PM 42.7097 147.8970 224° Southwest  Level FlightAware Approximate
Tue 01:28:00 PM 42.6193 147.7771 224° Southwest  Level FlightAware Approximate
Tue 01:29:00 PM 42.5287 147.6576 224° Southwest  Level FlightAware Approximate
Tue 01:30:00 PM 42.4380 147.5384 224° Southwest  Level FlightAware Approximate
Tue 01:31:00 PM 42.3476 147.4190 225° Southwest  Level FlightAware Approximate
Tue 01:32:00 PM 42.2576 147.2992 225° Southwest  Level FlightAware Approximate
Tue 01:33:00 PM 42.1675 147.1798 225° Southwest  Level FlightAware Approximate
Tue 01:34:00 PM 42.0772 147.0607 224° Southwest  Level FlightAware Approximate
Tue 01:35:00 PM 41.9869 146.9419 224° Southwest  Level FlightAware Approximate
Tue 01:36:00 PM 41.8962 146.8237 224° Southwest  Level FlightAware Approximate
Tue 01:37:00 PM 41.8049 146.7066 224° Southwest  Level FlightAware Approximate
Tue 01:38:00 PM 41.7135 146.5898 224° Southwest  Level FlightAware Approximate
Tue 01:39:00 PM 41.6219 146.4733 224° Southwest  Level FlightAware Approximate
Tue 01:40:00 PM 41.5303 146.3572 223° Southwest  Level FlightAware Approximate
Tue 01:41:00 PM 41.4385 146.2414 223° Southwest  Level FlightAware Approximate
Tue 01:42:00 PM 41.3466 146.1260 223° Southwest  Level FlightAware Approximate
Tue 01:43:00 PM 41.2546 146.0108 223° Southwest  Level FlightAware Approximate
Tue 01:44:00 PM 41.1624 145.8960 223° Southwest  Level FlightAware Approximate
Tue 01:45:00 PM 41.0702 145.7815 223° Southwest  Level FlightAware Approximate
Tue 01:46:00 PM 40.9778 145.6673 223° Southwest  Level FlightAware Approximate
Tue 01:47:00 PM 40.8853 145.5535 223° Southwest  Level FlightAware Approximate
Tue 01:48:00 PM 40.7928 145.4400 223° Southwest  Level FlightAware Approximate
Tue 01:49:00 PM 40.7001 145.3267 223° Southwest  Level FlightAware Approximate
Tue 01:50:00 PM 40.6073 145.2138 223° Southwest  Level FlightAware Approximate
Tue 01:51:00 PM 40.5144 145.1013 223° Southwest  Level FlightAware Approximate
Tue 01:52:00 PM 40.4213 144.9890 223° Southwest  Level FlightAware Approximate
Tue 01:53:00 PM 40.3529 144.8499 238° Southwest  Level FlightAware Approximate
Tue 01:54:00 PM 40.2856 144.7098 238° Southwest  Level FlightAware Approximate
Tue 01:55:00 PM 40.2182 144.5699 238° Southwest  Level FlightAware Approximate
Tue 01:56:00 PM 40.1506 144.4302 238° Southwest  Level FlightAware Approximate
Tue 01:57:00 PM 40.0828 144.2909 238° Southwest  Level FlightAware Approximate
Tue 01:58:00 PM 40.0149 144.1518 237° Southwest  Level FlightAware Approximate
Tue 01:59:00 PM 39.9467 144.0131 237° Southwest  Level FlightAware Approximate
Tue 02:00:00 PM 39.8785 143.8746 237° Southwest  Level FlightAware Approximate
Tue 02:01:00 PM 39.8106 143.7358 238° Southwest  Level FlightAware Approximate
Tue 02:02:00 PM 39.7439 143.5963 238° Southwest  Level FlightAware Approximate
Tue 02:03:00 PM 39.6769 143.4572 238° Southwest  Level FlightAware Approximate
Tue 02:04:00 PM 39.6098 143.3182 238° Southwest  Level FlightAware Approximate
Tue 02:05:00 PM 39.5425 143.1796 238° Southwest  Level FlightAware Approximate
Tue 02:06:00 PM 39.4750 143.0412 238° Southwest  Level FlightAware Approximate
Tue 02:07:00 PM 39.4074 142.9031 238° Southwest  Level FlightAware Approximate
Tue 02:08:00 PM 39.3396 142.7652 238° Southwest  Level FlightAware Approximate
Tue 02:09:00 PM 39.2717 142.6277 237° Southwest  Level FlightAware Approximate
Tue 02:10:00 PM 39.2010 142.4929 230° Southwest  Level FlightAware Approximate
Tue 02:11:00 PM 39.1189 142.3690 230° Southwest  Level FlightAware Approximate
Tue 02:12:00 PM 39.0368 142.2454 229° Southwest  Level FlightAware Approximate
Tue 02:13:00 PM 38.9546 142.1221 229° Southwest  Level FlightAware Approximate
Tue 02:14:00 PM 38.8722 141.9991 229° Southwest  Level FlightAware Approximate
Tue 02:15:00 PM 38.7897 141.8764 229° Southwest  Level FlightAware Approximate
Tue 02:16:00 PM 38.7070 141.7539 229° Southwest  Level FlightAware Approximate
Tue 02:17:00 PM 38.6242 141.6317 229° Southwest  Level FlightAware Approximate
Tue 02:18:00 PM 38.5414 141.5099 229° Southwest  Level FlightAware Approximate
Tue 02:19:00 PM 38.4583 141.3883 229° Southwest  Level FlightAware Approximate
Tue 02:20:00 PM 38.3752 141.2670 229° Southwest  Level FlightAware Approximate
Tue 02:21:00 PM 38.2919 141.1459 229° Southwest  Level FlightAware Approximate
Tue 02:22:00 PM 38.2085 141.0251 229° Southwest  Level FlightAware Approximate
Tue 02:23:00 PM 38.1317 140.9008 262° West  Level FlightAware Approximate
Tue 02:24:00 PM 38.1150 140.7417 262° West  Level FlightAware Approximate
Tue 02:25:00 PM 38.0981 140.5826 262° West  Level FlightAware Approximate
Tue 02:26:00 PM 38.0807 140.4237 263° West  Level FlightAware Approximate
Tue 02:27:00 PM 38.0649 140.2645 263° West  Level FlightAware Approximate
Tue 02:28:00 PM 38.0503 140.1052 263° West  Level FlightAware Approximate
Tue 02:29:00 PM 38.0353 139.9460 263° West  Level FlightAware Approximate
Tue 02:30:00 PM 38.0202 139.7868 263° West  Level FlightAware Approximate
Tue 02:31:00 PM 38.0044 139.6278 263° West  Level FlightAware Approximate
Tue 02:32:00 PM 37.9883 139.4689 263° West  Level FlightAware Approximate
Tue 02:33:00 PM 37.9719 139.3100 263° West  Level FlightAware Approximate
Tue 02:34:00 PM 37.9554 139.1512 263° West  Level FlightAware Approximate
Tue 02:35:00 PM 37.8996 139.0123 234° Southwest  Level FlightAware Approximate
Tue 02:36:00 PM 37.8252 138.8831 234° Southwest  Level FlightAware Approximate
Tue 02:37:00 PM 37.7506 138.7541 234° Southwest  Level FlightAware Approximate
Tue 02:38:00 PM 37.6759 138.6254 234° Southwest  Level FlightAware Approximate
Tue 02:39:00 PM 37.6010 138.4970 234° Southwest  Level FlightAware Approximate
Tue 02:40:00 PM 37.5275 138.3675 235° Southwest  Level FlightAware Approximate
Tue 02:41:00 PM 37.4542 138.2378 235° Southwest  Level FlightAware Approximate
Tue 02:42:00 PM 37.3808 138.1084 234° Southwest  Level FlightAware Approximate
Tue 02:43:00 PM 37.3072 137.9793 234° Southwest  Level FlightAware Approximate
Tue 02:44:00 PM 37.2320 137.8518 234° Southwest  Level FlightAware Approximate
Tue 02:45:00 PM 37.1574 137.7240 233° Southwest  Level FlightAware Approximate
Tue 02:46:00 PM 37.0806 137.5982 233° Southwest  Level FlightAware Approximate
Tue 02:47:00 PM 37.0037 137.4727 233° Southwest  Level FlightAware Approximate
Tue 02:48:00 PM 36.9342 137.3407 237° Southwest  Level FlightAware Approximate
Tue 02:49:00 PM 36.8650 137.2086 237° Southwest  Level FlightAware Approximate
Tue 02:50:00 PM 36.7934 137.0788 232° Southwest  Level FlightAware Approximate
Tue 02:51:00 PM 36.7163 136.9540 232° Southwest  Level FlightAware Approximate
Tue 02:52:00 PM 36.6390 136.8294 232° Southwest  Level FlightAware Approximate
Tue 02:53:00 PM 36.5630 136.7038 234° Southwest  Level FlightAware Approximate
Tue 02:54:00 PM 36.4883 136.5771 234° Southwest  Level FlightAware Approximate
Tue 02:55:00 PM 36.4134 136.4507 234° Southwest  Level FlightAware Approximate
Tue 02:56:00 PM 36.3616 136.3101 253° West  Level FlightAware Approximate
Tue 02:57:00 PM 36.3252 136.1599 253° West  Level FlightAware Approximate
Tue 02:58:00 PM 36.2886 136.0099 253° West  Level FlightAware Approximate
Tue 02:59:00 PM 36.2519 135.8601 253° West  Level FlightAware Approximate
Tue 03:00:00 PM 36.2149 135.7104 253° West  Level FlightAware Approximate
Tue 03:01:00 PM 36.1778 135.5608 253° West  Level FlightAware Approximate
Tue 03:02:00 PM 36.1406 135.4113 253° West  Level FlightAware Approximate
Tue 03:03:00 PM 36.1033 135.2619 253° West  Level FlightAware Approximate
Tue 03:04:00 PM 36.0658 135.1127 253° West  Level FlightAware Approximate
Tue 03:05:00 PM 36.0286 134.9635 253° West  Level FlightAware Approximate
Tue 03:06:00 PM 35.9914 134.8143 253° West  Level FlightAware Approximate
Tue 03:07:00 PM 35.9541 134.6652 253° West  Level FlightAware Approximate
Tue 03:08:00 PM 35.9167 134.5162 269° West  Level FlightAware Approximate
Tue 03:09:00 PM 35.9149 134.3603 269° West  Level FlightAware Approximate
Tue 03:10:00 PM 35.9130 134.2044 269° West  Level FlightAware Approximate
Tue 03:11:00 PM 35.9108 134.0485 269° West  Level FlightAware Approximate
Tue 03:12:00 PM 35.9085 133.8926 269° West  Level FlightAware Approximate
Tue 03:13:00 PM 35.9059 133.7367 269° West  Level FlightAware Approximate
Tue 03:14:00 PM 35.9032 133.5808 269° West  Level FlightAware Approximate
Tue 03:15:00 PM 35.9002 133.4249 269° West  Level FlightAware Approximate
Tue 03:16:00 PM 35.8970 133.2691 269° West  Level FlightAware Approximate
Tue 03:17:00 PM 35.8937 133.1133 269° West  Level FlightAware Approximate
Tue 03:18:00 PM 35.8901 132.9574 268° West  Level FlightAware Approximate
Tue 03:19:00 PM 35.8864 132.8016 268° West  Level FlightAware Approximate
Tue 03:20:00 PM 35.8824 132.6458 268° West  Level FlightAware Approximate
Tue 03:21:00 PM 35.8783 132.4900 268° West  Level FlightAware Approximate
Tue 03:22:00 PM 35.8739 132.3343 268° West  Level FlightAware Approximate
Tue 03:23:00 PM 35.8693 132.1785 268° West  Level FlightAware Approximate
Tue 03:24:00 PM 35.8646 132.0228 268° West  Level FlightAware Approximate
Tue 03:25:00 PM 35.8596 131.8671 268° West  Level FlightAware Approximate
Tue 03:26:00 PM 35.8544 131.7114 268° West  Level FlightAware Approximate
Tue 03:27:00 PM 35.8491 131.5557 268° West  Level FlightAware Approximate
Tue 03:28:00 PM 35.8435 131.4001 268° West  Level FlightAware Approximate
Tue 03:29:00 PM 35.8377 131.2444 267° West  Level FlightAware Approximate
Tue 03:30:00 PM 35.8317 131.0888 267° West  Level FlightAware Approximate
Tue 03:31:00 PM 35.8256 130.9333 267° West  Level FlightAware Approximate
Tue 03:32:00 PM 35.8192 130.7777 267° West  Level FlightAware Approximate
Tue 03:33:00 PM 35.8228 130.6227 280° West  Level FlightAware Approximate
Tue 03:34:00 PM 35.8443 130.4692 280° West  Level FlightAware Approximate
Tue 03:35:00 PM 35.8656 130.3156 280° West  Level FlightAware Approximate
Tue 03:36:00 PM 35.8867 130.1620 280° West  Level FlightAware Approximate
Tue 03:37:00 PM 35.9076 130.0082 280° West  Level FlightAware Approximate
Tue 03:38:00 PM 35.9283 129.8544 279° West  Level FlightAware Approximate
Tue 03:39:00 PM 35.9446 129.6997 277° West  Level FlightAware Approximate
Tue 03:40:00 PM 35.9593 129.5448 277° West  Level FlightAware Approximate
Tue 03:41:00 PM 36.0041 129.4046 307° West  Level FlightAware Approximate
Tue 03:42:00 PM 36.0795 129.2793 307° West  Level FlightAware Approximate
Tue 03:43:00 PM 36.1547 129.1537 307° West  Level FlightAware Approximate
Tue 03:44:00 PM 36.2295 129.0276 305° West  Level FlightAware Approximate
Tue 03:45:00 PM 36.3008 128.8984 302° West  Level FlightAware Approximate
Tue 03:46:00 PM 36.3719 128.7690 307° West  Level FlightAware Approximate
Tue 03:47:00 PM 36.4474 128.6433 307° West  Level FlightAware Approximate
Tue 03:48:00 PM 36.5145 128.5107 298° West  Level FlightAware Approximate
Tue 03:49:00 PM 36.5824 128.3784 305° West  Level FlightAware Approximate
Tue 03:50:00 PM 36.6554 128.2503 310° West  Level FlightAware Approximate
Tue 03:51:00 PM 36.7310 128.1242 305° West  Level FlightAware Approximate
Tue 03:52:00 PM 36.8033 127.9950 310° West  Level FlightAware Approximate
Tue 03:53:00 PM 36.8800 127.8697 306° West  Level FlightAware Approximate
Tue 03:54:00 PM 36.9541 127.7418 306° West  Level FlightAware Approximate
Tue 03:55:00 PM 37.0252 127.6115 296° West  Level FlightAware Approximate
Tue 03:56:00 PM 37.0806 127.4693 296° West  Level FlightAware Approximate
Tue 03:57:00 PM 37.1357 127.3268 295° West  Level FlightAware Approximate
Tue 03:58:00 PM 37.1882 127.1826 295° West  Level FlightAware Approximate
Tue 03:59:00 PM 37.2464 127.0420 298° West  Level FlightAware Approximate
Tue 04:00:00 PM 37.3061 126.9021 298° West  Level FlightAware Approximate
Tue 04:01:00 PM 37.3647 126.7614 298° West  Level FlightAware Approximate
Tue 04:02:00 PM 37.4213 126.6194 293° West  Level FlightAware Approximate
Tue 04:03:00 PM 37.4702 126.4727 293° West  Level FlightAware Approximate
Tue 04:04:00 PM 37.4691 126.4505 293° West  Level Estimated
Tue 04:05:00 PM 37.4691 126.4505 293° West  Level Estimated
Tue 04:06:00 PM 37.4691 126.4505 293° West  Level Estimated
Tue 04:07:00 PM 37.4691 126.4505 293° West  Level Estimated
Tue 04:08:00 PM 37.4691 126.4505 293° West  Level Estimated
Tue 04:09:00 PM 37.4691 126.4505 293° West  Level Estimated
Tue 04:10:00 PM 37.4691 126.4505 293° West  Level Estimated
Tue 04:11:00 PM 37.4691 126.4505 293° West  Level Estimated
Tue 04:12:00 PM 37.4691 126.4505 293° West  Level Estimated
Tue 04:13:00 PM 37.4691 126.4505 293° West  Level Estimated
Tue 04:14:00 PM 37.4691 126.4505 293° West  Level Estimated

Login

Don't have an account? Register now (free) for customized features, flight alerts, and more!